This is the latest recevied weather packets stored in our database for station/object KC9DRE. If no packets are shown the sender has not sent any weather packets the latest 10 day(s).
| Time | Temp. | Humidity | Pressure | Rain* | Wind** | Luminosity | Snow |
|---|---|---|---|---|---|---|---|
| 1778158479 | 11.67° C | 63% | 1016.8 hPa | 0 mm | - | 194 W/m² | - |
| 1778158176 | 11.67° C | 76% | 1016.8 hPa | 0 mm | - | 173 W/m² | - |
| 1778157872 | 10.56° C | 80% | 1016.9 hPa | 0 mm | - | 156 W/m² | - |
| 1778157570 | 10° C | 81% | 1016.9 hPa | 0 mm | - | 142 W/m² | - |
| 1778157267 | 9.44° C | 85% | 1017 hPa | 0 mm | - | 130 W/m² | - |
| 1778156964 | 8.89° C | 89% | 1016.7 hPa | 0 mm | - | 121 W/m² | - |
| 1778156659 | 8.33° C | 92% | 1017 hPa | 0 mm | - | 111 W/m² | - |
| 1778156355 | 7.78° C | 96% | 1016.9 hPa | 0 mm | - | 101 W/m² | - |
| 1778156050 | 7.22° C | 98% | 1016.8 hPa | 0 mm | - | 92 W/m² | - |
| 1778155748 | 6.67° C | 99% | 1016.7 hPa | 0 mm | - | 85 W/m² | - |
| 1778155444 | 6.11° C | 99% | 1016.8 hPa | 0 mm | - | 79 W/m² | - |
| 1778155140 | 6.11° C | 99% | 1016.8 hPa | 0 mm | - | 75 W/m² | - |
| 1778154836 | 5.56° C | 99% | 1016.6 hPa | 0 mm | - | 70 W/m² | - |
| 1778154532 | 5° C | 99% | 1016.8 hPa | 0 mm | - | 64 W/m² | - |
| 1778154229 | 4.44° C | 99% | 1016.6 hPa | 0 mm | - | 54 W/m² | - |
| 1778153926 | 3.89° C | 99% | 1016.9 hPa | 0 mm | - | 47 W/m² | - |
| 1778153623 | 2.78° C | 99% | 1016.8 hPa | 0 mm | - | 41 W/m² | - |
| 1778153321 | 1.67° C | 98% | 1016.8 hPa | 0 mm | - | 35 W/m² | - |
| 1778153018 | 1.67° C | 98% | 1016.7 hPa | 0 mm | - | 24 W/m² | - |
| 1778152716 | 1.11° C | 98% | 1016.8 hPa | 0 mm | - | 22 W/m² | - |
| 1778152412 | 1.11° C | 98% | 1016.8 hPa | 0 mm | - | 20 W/m² | - |
| 1778152108 | 1.11° C | 98% | 1016.7 hPa | 0 mm | - | 17 W/m² | - |
| 1778151804 | 1.67° C | 98% | 1016.6 hPa | 0 mm | - | 14 W/m² | - |
| 1778151502 | 1.11° C | 98% | 1016.5 hPa | 0 mm | - | 11 W/m² | - |
| 1778151198 | 1.11° C | 98% | 1016.8 hPa | 0 mm | - | 8 W/m² | - |
* Rain latest hour (hover to see other rain measurements)
** Current wind speed in m/s (hover to see current wind gust speed)